BarenTS Sea — 9VAP5 — position and weather

sailwx.info

Track history (hours):
 
Tides and Currents Weather Stations Pressure Air Temp Water Temp Dewpoint Dewpoint Depression Visibility Wind Speed Wind Dir Waves Ship Positions

BarenTS Sea

Last reported at 2016-Jul-10 00:33 UTC. Time now 2016-Aug-28 02:18 UTC.
Position S 24°05' W 045°12'.
Warning: this ship's position is 49 days out of date.

Length 248 m; draft 9.7 m.

Type: Tanker. MMSI: 563909000.

Date/timePositionNaut miles runAvg speedWind from/ knotsBaromVisibWave heightAir tempDewpointWater temp
2016-Jul-10 00:33S 24°05' W 045°12'10 9.9
2016-Jul-09 23:32S 24°05' W 045°23'12 8.3
2016-Jul-09 22:05S 23°54' W 045°29'7 0.2
2016-Jul-08 13:30S 23°50' W 045°24'6 6.3
2016-Jul-08 12:33S 23°53' W 045°29'1 0.6
2016-Jul-08 11:04S 23°53' W 045°30'0 0.0
2016-Jul-08 10:28S 23°53' W 045°30'0 0.0
2016-Jul-08 09:16S 23°53' W 045°30'0 0.0
2016-Jul-08 08:28S 23°53' W 045°30'0 0.1
2016-Jul-08 07:28S 23°54' W 045°30'0 0.1
2016-Jul-08 06:28S 23°53' W 045°30'0 0.0
2016-Jul-07 21:22S 23°53' W 045°30'0 0.0
2016-Jul-07 10:22S 23°53' W 045°30'0 0.0
2016-Jul-06 03:22S 23°53' W 045°30'0 0.0
2016-Jul-06 02:31S 23°53' W 045°30'0 0.0
2016-Jul-06 01:31S 23°53' W 045°30'0 0.0
2016-Jul-06 00:31S 23°53' W 045°30'0 0.0
2016-Jul-05 23:25S 23°53' W 045°30'0 0.0
2016-Jul-05 22:25S 23°53' W 045°30'0 0.0
2016-Jul-05 21:31S 23°53' W 045°30'0 0.0
2016-Jul-05 20:25S 23°53' W 045°30'0 0.0
2016-Jul-05 19:31S 23°53' W 045°30'0 0.0
2016-Jul-05 18:25S 23°53' W 045°30'0 0.0
2016-Jul-05 17:28S 23°53' W 045°30'0 0.0
2016-Jul-05 16:31S 23°53' W 045°30'0 0.0
2016-Jul-05 15:28S 23°53' W 045°30'0 0.0
2016-Jul-05 14:25S 23°53' W 045°30'0 0.0
2016-Jul-05 13:13S 23°53' W 045°30'0 0.3
2016-Jul-05 12:33S 23°53' W 045°30'3 3.0
2016-Jul-05 11:33S 23°56' W 045°29'9 8.5
2016-Jul-05 10:33S 24°04' W 045°26'10 9.9
2016-Jul-05 09:30S 24°08' W 045°15'6 4.2
2016-Jul-05 08:09S 24°06' W 045°09'1 0.3
2016-Jul-05 04:22S 24°05' W 045°08'910.6
2016-Jul-05 03:33S 23°59' W 045°02'3 0.7
2016-Jul-04 23:32S 23°57' W 045°04'1010.4
2016-Jul-04 22:33S 24°06' W 045°10'1110.6
2016-Jul-04 21:34S 24°09' W 045°21'18 8.2
2016-Jul-04 19:19S 23°53' W 045°30'0 0.0
2016-Jul-03 06:30S 23°53' W 045°30'  
Track history (hours):
 
Tides and Currents Weather Stations Pressure Air Temp Water Temp Dewpoint Dewpoint Depression Visibility Wind Speed Wind Dir Waves Ship Positions

BarenTS Sea

Last reported at 2016-Jul-10 00:33 UTC. Time now 2016-Aug-28 02:18 UTC.
Position S 24°05' W 045°12'.
Warning: this ship's position is 49 days out of date.

Length 248 m; draft 9.7 m.

Type: Tanker. MMSI: 563909000.

Date/timePositionNaut miles runAvg speedWind from/ knotsBaromVisibWave heightAir tempDewpointWater temp
2016-Jul-10 00:33S 24°05' W 045°12'10 9.9
2016-Jul-09 23:32S 24°05' W 045°23'12 8.3
2016-Jul-09 22:05S 23°54' W 045°29'7 0.2
2016-Jul-08 13:30S 23°50' W 045°24'6 6.3
2016-Jul-08 12:33S 23°53' W 045°29'1 0.6
2016-Jul-08 11:04S 23°53' W 045°30'0 0.0
2016-Jul-08 10:28S 23°53' W 045°30'0 0.0
2016-Jul-08 09:16S 23°53' W 045°30'0 0.0
2016-Jul-08 08:28S 23°53' W 045°30'0 0.1
2016-Jul-08 07:28S 23°54' W 045°30'0 0.1
2016-Jul-08 06:28S 23°53' W 045°30'0 0.0
2016-Jul-07 21:22S 23°53' W 045°30'0 0.0
2016-Jul-07 10:22S 23°53' W 045°30'0 0.0
2016-Jul-06 03:22S 23°53' W 045°30'0 0.0
2016-Jul-06 02:31S 23°53' W 045°30'0 0.0
2016-Jul-06 01:31S 23°53' W 045°30'0 0.0
2016-Jul-06 00:31S 23°53' W 045°30'0 0.0
2016-Jul-05 23:25S 23°53' W 045°30'0 0.0
2016-Jul-05 22:25S 23°53' W 045°30'0 0.0
2016-Jul-05 21:31S 23°53' W 045°30'0 0.0
2016-Jul-05 20:25S 23°53' W 045°30'0 0.0
2016-Jul-05 19:31S 23°53' W 045°30'0 0.0
2016-Jul-05 18:25S 23°53' W 045°30'0 0.0
2016-Jul-05 17:28S 23°53' W 045°30'0 0.0
2016-Jul-05 16:31S 23°53' W 045°30'0 0.0
2016-Jul-05 15:28S 23°53' W 045°30'0 0.0
2016-Jul-05 14:25S 23°53' W 045°30'0 0.0
2016-Jul-05 13:13S 23°53' W 045°30'0 0.3
2016-Jul-05 12:33S 23°53' W 045°30'3 3.0
2016-Jul-05 11:33S 23°56' W 045°29'9 8.5
2016-Jul-05 10:33S 24°04' W 045°26'10 9.9
2016-Jul-05 09:30S 24°08' W 045°15'6 4.2
2016-Jul-05 08:09S 24°06' W 045°09'1 0.3
2016-Jul-05 04:22S 24°05' W 045°08'910.6
2016-Jul-05 03:33S 23°59' W 045°02'3 0.7
2016-Jul-04 23:32S 23°57' W 045°04'1010.4
2016-Jul-04 22:33S 24°06' W 045°10'1110.6
2016-Jul-04 21:34S 24°09' W 045°21'18 8.2
2016-Jul-04 19:19S 23°53' W 045°30'0 0.0
2016-Jul-03 06:30S 23°53' W 045°30'  

Dump ship's entire track history